Time;durP1;ratioP1;P1;durP2;ratioP2;P2;SDS_P1;SDS_P2;PMS_P1;PMS_P2;Temp;Humidity;BMP_temperature;BMP_pressure;BME280_temperature;BME280_humidity;BME280_pressure;Samples;Min_cycle;Max_cycle;Signal;HPM_P1;HPM_P2
2022/08/03 00:01:36;;;;;;;7.47;7.17;;;;;;;18.98;62.64;92922.47;5052285;28;20210;-76
2022/08/03 00:04:03;;;;;;;7.83;7.43;;;;;;;18.79;63.43;92888.50;5048066;28;20224;-76
2022/08/03 00:06:28;;;;;;;7.73;7.33;;;;;;;18.77;62.21;92871.41;5051771;28;20219;-75
2022/08/03 00:08:54;;;;;;;8.23;7.83;;;;;;;18.88;62.35;92899.00;5051758;28;20243;-76
2022/08/03 00:11:19;;;;;;;7.37;6.97;;;;;;;18.78;62.84;92886.19;5052420;28;20207;-76
2022/08/03 00:13:45;;;;;;;7.80;7.50;;;;;;;18.90;63.23;92912.69;5050897;28;20233;-76
2022/08/03 00:16:12;;;;;;;8.27;7.97;;;;;;;18.81;63.05;92891.59;5051511;28;20295;-76
2022/08/03 00:18:37;;;;;;;8.00;7.63;;;;;;;18.81;63.73;92912.78;5050287;28;20228;-77
2022/08/03 00:21:03;;;;;;;8.17;7.77;;;;;;;18.57;63.87;92882.72;5051222;28;20176;-76
2022/08/03 00:23:29;;;;;;;8.00;7.70;;;;;;;18.62;63.97;92893.13;5052315;28;20220;-76
2022/08/03 00:25:55;;;;;;;8.33;7.83;;;;;;;18.58;65.02;92886.94;5051020;28;20199;-76
2022/08/03 00:28:20;;;;;;;7.83;7.43;;;;;;;18.63;64.95;92900.72;5047108;28;20241;-77
2022/08/03 00:30:46;;;;;;;8.57;8.17;;;;;;;18.61;65.21;92910.09;5051739;28;20274;-76
2022/08/03 00:33:11;;;;;;;7.53;7.20;;;;;;;18.58;65.35;92913.38;5050984;28;20231;-76
2022/08/03 00:35:37;;;;;;;9.10;8.40;;;;;;;18.44;64.83;92886.38;5050859;28;20231;-76
2022/08/03 00:38:02;;;;;;;8.03;7.67;;;;;;;18.49;64.50;92908.13;5049751;28;20219;-76
2022/08/03 00:40:28;;;;;;;8.60;8.20;;;;;;;18.42;64.96;92899.91;5050913;28;20206;-76
2022/08/03 00:42:59;;;;;;;9.27;8.77;;;;;;;18.53;64.99;92902.97;5050202;28;20295;-75
2022/08/03 00:45:27;;;;;;;7.93;7.63;;;;;;;18.61;64.31;92899.50;5051321;28;20223;-77
2022/08/03 00:47:53;;;;;;;7.87;7.57;;;;;;;18.65;64.31;92903.84;5048273;28;20230;-76
2022/08/03 00:50:21;;;;;;;8.50;8.00;;;;;;;18.52;64.59;92888.22;5051540;28;20184;-76
2022/08/03 00:52:48;;;;;;;7.80;7.50;;;;;;;18.68;65.34;92902.41;5051234;28;20232;-76
2022/08/03 00:55:14;;;;;;;7.73;7.43;;;;;;;18.56;66.58;92902.31;5050909;28;20187;-77
2022/08/03 00:57:41;;;;;;;7.83;7.37;;;;;;;18.36;66.39;92901.16;5053254;28;20254;-77
2022/08/03 01:00:09;;;;;;;8.07;7.77;;;;;;;18.44;67.16;92903.03;5051279;28;20740;-76
2022/08/03 01:02:35;;;;;;;8.03;7.63;;;;;;;18.42;66.94;92896.50;5050177;28;20232;-75
2022/08/03 01:05:00;;;;;;;8.23;7.83;;;;;;;18.36;66.39;92885.31;5051057;28;20185;-76
2022/08/03 01:07:56;;;;;;;8.20;7.70;;;;;;;18.37;67.29;92894.78;5051098;28;20218;-76
2022/08/03 01:10:29;;;;;;;9.17;8.37;;;;;;;18.18;67.78;92867.22;5051237;28;20195;-76
2022/08/03 01:13:05;;;;;;;8.57;8.13;;;;;;;18.26;68.43;92898.09;5050298;28;20210;-76
2022/08/03 01:15:45;;;;;;;8.50;8.03;;;;;;;18.15;68.65;92875.78;5050939;28;20198;-76
2022/08/03 01:18:10;;;;;;;8.63;7.93;;;;;;;18.26;68.81;92890.16;5050814;28;20238;-76
2022/08/03 01:20:39;;;;;;;7.50;7.17;;;;;;;18.16;69.57;92886.03;5050171;28;20267;-76
2022/08/03 01:23:19;;;;;;;6.87;6.57;;;;;;;18.17;69.56;92886.78;5050024;28;20884;-76
2022/08/03 01:26:22;;;;;;;6.50;6.20;;;;;;;18.00;70.69;92881.56;5050877;28;20191;-76
2022/08/03 01:29:18;;;;;;;8.37;7.97;;;;;;;17.99;71.00;92880.03;5049298;28;20231;-76
2022/08/03 01:31:51;;;;;;;7.43;7.07;;;;;;;17.81;71.98;92878.53;5050787;28;20194;-76
2022/08/03 01:34:19;;;;;;;8.23;7.73;;;;;;;17.98;71.38;92873.97;5050443;28;20211;-76
2022/08/03 01:36:52;;;;;;;7.67;7.27;;;;;;;17.94;71.49;92872.28;5050637;28;20202;-76
2022/08/03 01:39:19;;;;;;;8.70;8.30;;;;;;;17.82;72.41;92885.38;5050067;28;20210;-76
2022/08/03 01:41:58;;;;;;;8.17;7.83;;;;;;;17.84;71.90;92885.84;5050570;28;20182;-75
2022/08/03 01:44:28;;;;;;;8.57;8.17;;;;;;;17.75;71.03;92851.53;5049917;28;20237;-75
2022/08/03 01:46:57;;;;;;;9.67;9.07;;;;;;;17.90;71.70;92884.56;5050300;28;20316;-77
2022/08/03 01:49:23;;;;;;;8.53;7.93;;;;;;;17.57;72.02;92852.69;5049336;28;20179;-75
2022/08/03 01:51:50;;;;;;;8.27;7.87;;;;;;;17.66;72.48;92887.75;5050323;28;20186;-76
2022/08/03 01:54:16;;;;;;;8.37;7.97;;;;;;;17.78;72.56;92890.50;5050737;28;20294;-76
2022/08/03 01:56:44;;;;;;;9.30;8.80;;;;;;;17.77;72.84;92890.81;5049324;28;20217;-76
2022/08/03 01:59:11;;;;;;;7.93;7.57;;;;;;;17.72;73.26;92883.84;5049802;28;20233;-76
2022/08/03 02:01:37;;;;;;;6.93;6.63;;;;;;;17.58;73.09;92881.41;5050252;28;20186;-76
2022/08/03 02:04:05;;;;;;;8.63;8.13;;;;;;;17.68;72.86;92888.22;5048285;28;20223;-76
2022/08/03 02:06:33;;;;;;;8.83;8.33;;;;;;;17.56;73.14;92880.94;5049073;28;20178;-76
2022/08/03 02:08:59;;;;;;;12.07;8.63;;;;;;;17.50;74.66;92884.84;5050153;28;20218;-77
2022/08/03 02:11:26;;;;;;;8.60;8.13;;;;;;;17.49;74.25;92885.91;5050254;28;20178;-76
2022/08/03 02:13:53;;;;;;;7.60;7.30;;;;;;;17.50;73.76;92889.31;5049773;28;20230;-76
2022/08/03 02:16:22;;;;;;;7.73;7.40;;;;;;;17.48;74.13;92887.00;5065667;28;20225;-77
2022/08/03 02:18:47;;;;;;;7.20;6.90;;;;;;;17.33;74.04;92862.94;5049230;28;20256;-76
2022/08/03 02:21:14;;;;;;;12.03;8.73;;;;;;;17.45;74.12;92877.06;5048418;28;20199;-76
2022/08/03 02:23:39;;;;;;;8.43;7.93;;;;;;;17.36;73.84;92881.56;5050402;28;20222;-77
2022/08/03 02:26:11;;;;;;;8.80;8.10;;;;;;;17.45;72.98;92885.00;5049751;28;20186;-76
2022/08/03 02:28:40;;;;;;;8.40;7.90;;;;;;;17.42;72.23;92882.16;5049714;28;20716;-75
2022/08/03 02:31:12;;;;;;;8.73;8.13;;;;;;;17.37;72.70;92872.53;5049383;28;20194;-76
2022/08/03 02:33:42;;;;;;;9.50;8.63;;;;;;;17.39;73.56;92878.28;5046457;28;20251;-77
2022/08/03 02:36:10;;;;;;;7.70;7.20;;;;;;;17.33;74.25;92874.28;5049763;28;20182;-76
2022/08/03 02:38:39;;;;;;;8.43;7.80;;;;;;;17.33;73.91;92853.16;5048635;28;20244;-76
2022/08/03 02:41:07;;;;;;;8.43;7.87;;;;;;;17.36;74.82;92880.78;5048883;28;20190;-76
2022/08/03 02:43:35;;;;;;;7.83;7.53;;;;;;;17.29;74.76;92859.38;5049168;28;20211;-77
2022/08/03 02:46:01;;;;;;;8.00;7.70;;;;;;;17.38;75.17;92875.97;5049876;28;20188;-76
2022/08/03 02:48:29;;;;;;;8.70;8.20;;;;;;;17.40;75.18;92879.84;5048853;28;20249;-76
2022/08/03 02:50:57;;;;;;;8.13;7.67;;;;;;;17.24;75.04;92873.50;5049798;28;20190;-77
2022/08/03 02:53:25;;;;;;;8.37;7.83;;;;;;;17.17;75.13;92880.31;5048555;28;20865;-76
2022/08/03 02:55:52;;;;;;;8.50;8.00;;;;;;;17.15;75.49;92878.00;5048769;28;20195;-76
2022/08/03 02:58:20;;;;;;;8.67;8.17;;;;;;;17.12;75.63;92878.63;5048551;28;20236;-76
2022/08/03 03:00:46;;;;;;;8.23;7.63;;;;;;;17.15;76.23;92887.78;5049677;28;20198;-76
2022/08/03 03:03:13;;;;;;;8.83;8.43;;;;;;;17.03;76.98;92884.97;5044130;28;20237;-76
2022/08/03 03:05:40;;;;;;;8.93;8.50;;;;;;;17.12;76.19;92883.91;5047820;28;20248;-77
2022/08/03 03:08:07;;;;;;;8.40;8.00;;;;;;;17.19;76.30;92884.22;5047996;28;20218;-76
2022/08/03 03:10:33;;;;;;;8.00;7.60;;;;;;;17.03;76.71;92885.75;5049185;28;20217;-75
2022/08/03 03:13:00;;;;;;;7.77;7.30;;;;;;;16.80;77.50;92875.66;5048953;28;20229;-76
2022/08/03 03:15:27;;;;;;;7.93;7.53;;;;;;;16.73;78.71;92891.94;5048970;28;20190;-77
2022/08/03 03:17:54;;;;;;;8.27;7.77;;;;;;;16.73;78.12;92868.22;5043587;28;20234;-76
2022/08/03 03:20:23;;;;;;;8.67;8.27;;;;;;;16.82;77.98;92889.34;5049543;28;20197;-76
2022/08/03 03:22:49;;;;;;;8.23;7.87;;;;;;;16.79;78.65;92906.56;5049117;28;20285;-75
2022/08/03 03:25:16;;;;;;;7.97;7.60;;;;;;;16.94;77.28;92919.28;5048945;28;20178;-76
2022/08/03 03:27:41;;;;;;;7.87;7.37;;;;;;;16.77;77.71;92892.91;5049319;28;20236;-75
2022/08/03 03:30:07;;;;;;;9.53;8.83;;;;;;;16.93;77.44;92917.75;5049419;28;20190;-77
2022/08/03 03:32:35;;;;;;;8.00;7.60;;;;;;;16.91;77.04;92896.16;5045983;28;20245;-76
2022/08/03 03:35:01;;;;;;;9.70;9.13;;;;;;;17.11;76.58;92921.94;5049378;28;20257;-74
2022/08/03 03:37:27;;;;;;;8.83;8.37;;;;;;;17.08;77.02;92911.22;5048634;28;20248;-74
2022/08/03 03:39:53;;;;;;;9.50;8.90;;;;;;;17.05;77.76;92915.25;5046575;28;20193;-75
2022/08/03 03:42:19;;;;;;;9.37;8.87;;;;;;;17.06;77.93;92916.81;5047908;28;20229;-74
2022/08/03 03:44:45;;;;;;;9.00;8.50;;;;;;;17.19;77.65;92915.88;5048156;28;20186;-74
2022/08/03 03:47:10;;;;;;;9.83;8.97;;;;;;;17.37;76.88;92914.78;5046719;28;20240;-74
2022/08/03 03:49:36;;;;;;;8.03;7.43;;;;;;;17.34;77.15;92919.91;5046810;28;20221;-74
2022/08/03 03:52:01;;;;;;;8.37;7.87;;;;;;;17.14;77.77;92894.94;5047092;28;20212;-75
2022/08/03 03:54:41;;;;;;;10.00;9.17;;;;;;;17.33;77.97;92927.06;5047059;28;20187;-74
2022/08/03 03:57:07;;;;;;;9.50;8.77;;;;;;;17.44;77.54;92922.25;5048230;28;20228;-74
2022/08/03 03:59:32;;;;;;;9.30;8.63;;;;;;;17.56;77.54;92917.91;5049166;28;20939;-74
2022/08/03 04:01:57;;;;;;;9.53;8.83;;;;;;;17.72;77.11;92922.66;5048612;28;20201;-74
2022/08/03 04:12:42;;;;;;;8.43;8.03;;;;;;;17.86;77.52;92928.53;5048457;28;20225;-75
2022/08/03 04:15:10;;;;;;;8.93;8.43;;;;;;;17.83;77.55;92923.91;5048536;28;20236;-74
2022/08/03 04:17:36;;;;;;;8.90;8.37;;;;;;;17.83;77.37;92913.31;5047683;28;20222;-74
2022/08/03 04:20:02;;;;;;;8.70;8.23;;;;;;;17.98;77.65;92918.13;5049488;28;20192;-74
2022/08/03 04:22:31;;;;;;;9.73;9.23;;;;;;;18.17;76.86;92931.72;5048073;28;20253;-74
2022/08/03 04:25:08;;;;;;;8.83;8.33;;;;;;;18.25;76.51;92921.13;5047044;28;20187;-74
2022/08/03 04:27:39;;;;;;;8.73;8.23;;;;;;;18.44;75.94;92926.03;5071528;28;20281;-74
2022/08/03 04:30:05;;;;;;;8.63;8.23;;;;;;;18.80;71.74;92939.53;5046897;28;20206;-74
2022/08/03 04:32:31;;;;;;;8.43;7.93;;;;;;;18.95;70.47;92928.41;5047659;28;20229;-74
2022/08/03 04:34:57;;;;;;;8.80;8.10;;;;;;;19.05;70.10;92934.06;5048356;28;20245;-74
2022/08/03 04:37:39;;;;;;;9.30;8.60;;;;;;;19.12;70.67;92930.91;5047476;28;20240;-74
2022/08/03 04:40:20;;;;;;;8.00;7.50;;;;;;;19.12;70.95;92921.13;5050506;28;20199;-83
2022/08/03 04:42:47;;;;;;;8.80;8.40;;;;;;;19.27;70.38;92922.38;5051229;28;20257;-75
2022/08/03 04:45:15;;;;;;;8.97;8.37;;;;;;;19.51;70.14;92933.13;5051820;28;20192;-75
2022/08/03 04:47:41;;;;;;;8.20;7.87;;;;;;;19.76;69.42;92937.44;5051633;28;20239;-77
2022/08/03 04:50:08;;;;;;;8.37;7.97;;;;;;;20.08;68.39;92949.88;5050997;28;20222;-74
2022/08/03 04:52:33;;;;;;;8.60;8.20;;;;;;;19.83;68.61;92953.56;5051073;28;20235;-75
2022/08/03 04:54:59;;;;;;;9.53;8.60;;;;;;;19.90;69.13;92947.72;5051541;28;20188;-75
2022/08/03 04:57:24;;;;;;;12.40;11.20;;;;;;;20.11;67.96;92938.59;5050719;28;20253;-78
2022/08/03 04:59:53;;;;;;;10.90;9.83;;;;;;;20.35;67.17;92953.81;5050709;28;20208;-77
2022/08/03 05:02:22;;;;;;;15.83;14.13;;;;;;;20.03;67.68;92936.81;5050831;28;20291;-75
2022/08/03 05:04:48;;;;;;;11.87;10.87;;;;;;;20.33;65.75;92951.50;5051446;28;20187;-75
2022/08/03 05:07:14;;;;;;;10.20;9.50;;;;;;;20.19;67.00;92963.50;5051043;28;20233;-77
2022/08/03 05:09:40;;;;;;;9.50;8.90;;;;;;;20.37;65.76;92952.38;5051766;28;20192;-76
2022/08/03 05:12:06;;;;;;;10.23;9.23;;;;;;;20.08;68.30;92970.28;5047797;28;20938;-75
2022/08/03 05:14:33;;;;;;;9.90;9.23;;;;;;;19.98;69.02;92968.84;5051406;28;20216;-76
2022/08/03 05:16:58;;;;;;;11.13;9.97;;;;;;;19.84;68.09;92952.47;5050010;28;20228;-75
2022/08/03 05:19:24;;;;;;;12.53;9.10;;;;;;;20.33;66.73;92977.25;5050810;28;20183;-78
2022/08/03 05:21:49;;;;;;;15.63;9.57;;;;;;;19.83;68.63;92952.81;5050857;28;20177;-76
2022/08/03 05:24:14;;;;;;;9.70;9.00;;;;;;;20.40;66.45;92983.56;5050564;28;20691;-76
2022/08/03 05:26:40;;;;;;;9.60;8.90;;;;;;;20.79;65.27;92976.06;5049894;28;20689;-77
2022/08/03 05:29:05;;;;;;;9.65;8.88;;;;;;;20.50;66.28;92971.72;5049434;28;20217;-77
2022/08/03 05:31:31;;;;;;;9.30;8.30;;;;;;;20.44;66.14;92952.63;5048200;28;20192;-81
2022/08/03 05:33:56;;;;;;;10.80;9.30;;;;;;;20.53;65.48;92955.94;5048355;28;20222;-76
2022/08/03 05:36:22;;;;;;;11.20;10.10;;;;;;;20.66;66.77;92985.91;5050132;28;20189;-74
2022/08/03 05:38:47;;;;;;;10.93;8.60;;;;;;;20.72;65.24;92989.13;5048891;28;20224;-73
2022/08/03 05:41:12;;;;;;;9.52;8.63;;;;;;;21.13;62.96;92983.59;5050342;28;20187;-74
2022/08/03 05:43:38;;;;;;;10.10;9.20;;;;;;;21.31;61.77;92984.94;5048702;28;20235;-74
2022/08/03 05:46:03;;;;;;;8.60;8.07;;;;;;;21.10;61.89;92971.00;5050246;28;20187;-75
2022/08/03 05:48:29;;;;;;;9.38;8.68;;;;;;;21.41;61.88;92981.78;5049438;28;20231;-75
2022/08/03 05:50:54;;;;;;;9.20;8.00;;;;;;;22.51;58.45;92995.13;5049744;28;20194;-74
2022/08/03 05:53:20;;;;;;;10.05;8.73;;;;;;;23.59;54.94;93006.81;5048795;28;20241;-73
2022/08/03 05:55:45;;;;;;;8.57;8.02;;;;;;;28.30;42.68;93011.03;5049463;28;20227;-73
2022/08/03 05:58:10;;;;;;;7.93;7.43;;;;;;;30.27;37.35;93025.38;5049710;28;20265;-72
2022/08/03 06:00:36;;;;;;;8.63;7.93;;;;;;;33.00;32.21;93036.97;5050232;28;20185;-72
2022/08/03 06:03:01;;;;;;;7.53;7.10;;;;;;;34.78;29.21;93049.41;5049483;28;20232;-72
2022/08/03 06:05:27;;;;;;;7.18;6.75;;;;;;;35.70;27.97;93047.38;5048462;28;20186;-72
2022/08/03 06:07:53;;;;;;;7.88;7.25;;;;;;;34.64;28.48;93033.41;5049440;28;20241;-72
2022/08/03 06:10:19;;;;;;;7.75;7.15;;;;;;;36.73;25.78;93052.47;5050115;28;20212;-73
2022/08/03 06:12:46;;;;;;;7.72;7.15;;;;;;;34.53;29.05;93037.53;5049056;28;20249;-71
2022/08/03 06:15:12;;;;;;;10.93;7.45;;;;;;;36.56;25.83;93042.84;5049746;28;20174;-73
2022/08/03 06:17:48;;;;;;;8.30;7.68;;;;;;;37.54;24.35;93061.00;5044510;28;20834;-72
2022/08/03 06:20:18;;;;;;;8.05;7.38;;;;;;;36.31;25.76;93042.75;5047785;28;20196;-72
2022/08/03 06:22:44;;;;;;;7.20;6.68;;;;;;;37.89;23.74;93049.75;5048473;28;20230;-72
2022/08/03 06:25:10;;;;;;;7.13;6.72;;;;;;;38.61;22.93;93054.34;5049280;28;20201;-73
2022/08/03 06:27:38;;;;;;;7.03;6.53;;;;;;;38.57;22.96;93051.78;5045264;28;20336;-72
2022/08/03 06:30:06;;;;;;;6.97;6.47;;;;;;;38.50;23.12;93052.75;5048764;28;20200;-73
2022/08/03 06:32:32;;;;;;;6.55;6.15;;;;;;;35.60;26.38;93049.94;5049638;28;20293;-72
2022/08/03 06:34:58;;;;;;;7.47;6.30;;;;;;;34.63;29.01;93025.69;5049570;28;20214;-72
2022/08/03 06:37:23;;;;;;;8.35;6.88;;;;;;;33.33;30.67;93028.72;5048705;28;20232;-72
2022/08/03 06:39:49;;;;;;;7.87;7.23;;;;;;;30.83;33.92;93016.28;5048860;28;20455;-75
2022/08/03 06:42:14;;;;;;;7.85;7.35;;;;;;;26.86;41.91;93020.81;5049136;28;20233;-73
2022/08/03 06:44:39;;;;;;;7.78;7.05;;;;;;;25.45;46.95;92988.88;5049615;28;20217;-72
2022/08/03 06:47:05;;;;;;;9.00;8.20;;;;;;;25.79;46.13;93001.16;5049344;28;20204;-73
2022/08/03 06:49:30;;;;;;;9.65;8.75;;;;;;;25.80;45.91;93009.97;5047441;28;20197;-72
2022/08/03 06:51:56;;;;;;;11.23;9.27;;;;;;;25.35;47.43;93002.88;5048501;28;20194;-74
2022/08/03 06:54:23;;;;;;;9.88;9.00;;;;;;;24.22;50.09;92968.09;5048967;28;20194;-74
2022/08/03 06:56:48;;;;;;;9.88;8.82;;;;;;;24.81;49.22;93005.78;5048854;28;20212;-73
2022/08/03 06:59:14;;;;;;;10.75;9.82;;;;;;;24.75;50.13;93011.78;5046156;28;20241;-74
2022/08/03 07:01:39;;;;;;;8.88;8.15;;;;;;;24.23;52.39;92987.56;5048963;28;20178;-73
2022/08/03 07:04:04;;;;;;;9.35;8.75;;;;;;;24.00;52.50;93000.06;5048307;28;20218;-73
2022/08/03 07:06:30;;;;;;;9.23;8.43;;;;;;;24.39;50.56;92996.25;5048730;28;20188;-73
2022/08/03 07:08:56;;;;;;;9.60;8.80;;;;;;;24.13;51.46;92996.91;5047120;28;20209;-73
2022/08/03 07:11:21;;;;;;;9.10;8.50;;;;;;;24.64;49.72;92992.88;5048791;28;20251;-72
2022/08/03 07:13:47;;;;;;;9.02;8.32;;;;;;;24.77;50.41;93001.53;5047894;28;20241;-73
2022/08/03 07:16:12;;;;;;;9.38;8.77;;;;;;;24.62;50.85;92991.69;5048224;28;20255;-72
2022/08/03 07:18:39;;;;;;;8.30;7.72;;;;;;;24.17;53.12;93013.00;5048438;28;20240;-72
2022/08/03 07:21:06;;;;;;;8.55;8.05;;;;;;;23.97;52.70;93008.78;5048616;28;20269;-73
2022/08/03 07:23:32;;;;;;;10.38;9.57;;;;;;;24.18;52.95;93017.19;5048506;28;20236;-72
2022/08/03 07:25:57;;;;;;;9.70;9.00;;;;;;;24.62;50.38;93015.75;5046090;28;20200;-72
2022/08/03 07:28:22;;;;;;;9.50;8.80;;;;;;;24.63;50.55;93022.59;5047043;28;20754;-73
2022/08/03 07:30:48;;;;;;;9.05;8.15;;;;;;;24.74;50.51;93012.91;5049002;28;20269;-73
2022/08/03 07:33:14;;;;;;;9.05;8.23;;;;;;;24.54;49.65;93025.53;5047124;28;20237;-74
2022/08/03 07:35:39;;;;;;;8.98;8.27;;;;;;;24.37;50.45;93025.97;5048648;28;20192;-74
2022/08/03 07:38:05;;;;;;;9.30;8.43;;;;;;;24.50;50.67;93022.00;5048253;28;20239;-73
2022/08/03 07:40:30;;;;;;;8.98;8.25;;;;;;;24.91;50.41;93020.44;5048775;28;20203;-74
2022/08/03 07:42:57;;;;;;;9.45;8.65;;;;;;;24.30;49.70;93019.69;5048227;28;20225;-74
2022/08/03 07:45:23;;;;;;;8.52;7.93;;;;;;;24.38;50.37;93024.06;5048968;28;20188;-74
2022/08/03 07:47:48;;;;;;;8.98;8.35;;;;;;;24.60;50.78;93020.66;5047780;28;20233;-73
2022/08/03 07:50:14;;;;;;;8.77;8.18;;;;;;;24.88;48.21;93013.16;5047234;28;20208;-74
2022/08/03 07:52:48;;;;;;;8.40;7.80;;;;;;;24.64;48.94;93013.50;5047787;28;20235;-73
2022/08/03 07:55:18;;;;;;;8.60;8.10;;;;;;;24.62;48.50;93010.41;5048248;28;20192;-73
2022/08/03 07:57:43;;;;;;;8.70;8.18;;;;;;;24.89;47.04;93017.34;5047825;28;20255;-74
2022/08/03 08:00:17;;;;;;;8.00;7.38;;;;;;;24.61;45.69;93032.88;5049111;28;20182;-74
2022/08/03 08:02:43;;;;;;;8.02;7.53;;;;;;;24.99;45.23;93022.13;5047784;28;20225;-74
2022/08/03 08:05:10;;;;;;;9.35;8.75;;;;;;;25.05;45.84;93018.00;5048515;28;20213;-72
2022/08/03 08:07:37;;;;;;;8.85;8.13;;;;;;;24.76;46.70;93024.78;5045965;28;20243;-76
2022/08/03 08:10:04;;;;;;;8.43;7.93;;;;;;;24.64;47.46;93013.50;5048863;28;20224;-73
2022/08/03 08:12:29;;;;;;;10.27;9.27;;;;;;;24.39;48.63;93033.63;5051159;28;20232;-75
2022/08/03 08:14:55;;;;;;;10.07;9.18;;;;;;;24.72;48.42;93009.81;5050819;28;20182;-73
2022/08/03 08:17:20;;;;;;;8.80;8.10;;;;;;;24.28;47.79;92997.94;5051184;28;20248;-74
2022/08/03 08:19:46;;;;;;;8.52;7.85;;;;;;;24.34;47.45;93033.91;5050820;28;20205;-73
2022/08/03 08:22:11;;;;;;;8.77;8.07;;;;;;;24.76;47.25;93029.38;5049843;28;20292;-73
2022/08/03 08:24:36;;;;;;;8.90;8.27;;;;;;;25.11;47.05;93025.38;5051858;28;20201;-73
2022/08/03 08:27:02;;;;;;;8.73;8.13;;;;;;;25.34;45.29;93012.00;5050873;28;20203;-74
2022/08/03 08:29:27;;;;;;;8.07;7.60;;;;;;;25.35;45.30;93029.59;5052399;28;20177;-72
2022/08/03 08:31:53;;;;;;;8.95;8.00;;;;;;;24.91;45.63;93017.78;5051737;28;20188;-73
2022/08/03 08:34:18;;;;;;;8.65;7.82;;;;;;;25.27;47.65;93030.59;5051992;28;20186;-73
2022/08/03 08:36:44;;;;;;;8.65;8.05;;;;;;;25.22;45.87;93029.00;5051987;28;20979;-73
2022/08/03 08:39:09;;;;;;;9.30;8.50;;;;;;;25.40;45.33;93029.31;5051873;28;20249;-74
2022/08/03 08:41:34;;;;;;;8.80;8.18;;;;;;;25.43;45.57;93036.59;5049258;28;20178;-73
2022/08/03 08:44:01;;;;;;;9.02;8.27;;;;;;;26.06;43.61;93029.47;5050783;28;20222;-73
2022/08/03 08:46:31;;;;;;;9.18;8.52;;;;;;;25.84;45.43;93016.91;5051503;28;20205;-73
2022/08/03 08:48:58;;;;;;;8.27;7.45;;;;;;;25.62;45.56;93019.69;5051422;28;20288;-73
2022/08/03 08:51:28;;;;;;;8.82;7.97;;;;;;;25.57;48.15;93023.44;5049707;28;20170;-73
2022/08/03 08:53:56;;;;;;;8.20;7.70;;;;;;;25.67;43.96;93030.81;5050242;28;20233;-73
2022/08/03 08:56:24;;;;;;;8.40;7.80;;;;;;;25.87;43.56;93032.22;5050378;28;20197;-73
2022/08/03 08:58:58;;;;;;;8.40;7.85;;;;;;;25.77;44.04;93032.88;5050991;28;20232;-73
2022/08/03 09:01:23;;;;;;;8.60;8.10;;;;;;;25.43;44.25;93028.56;5051639;28;20257;-73
2022/08/03 09:03:49;;;;;;;8.25;7.78;;;;;;;25.85;44.02;93023.03;5049239;28;20217;-72
2022/08/03 09:06:14;;;;;;;8.82;8.23;;;;;;;25.85;44.55;93020.38;5051283;28;20201;-73
2022/08/03 09:08:40;;;;;;;8.40;7.80;;;;;;;25.90;44.05;93023.47;5050573;28;20217;-73
2022/08/03 09:11:06;;;;;;;7.82;7.32;;;;;;;26.09;43.69;93025.28;5049848;28;20190;-73
2022/08/03 09:13:32;;;;;;;8.52;7.93;;;;;;;26.02;43.20;93011.81;5050279;28;20316;-73
2022/08/03 09:16:16;;;;;;;8.23;7.65;;;;;;;25.91;44.62;93022.38;5051111;28;20241;-72
2022/08/03 09:18:44;;;;;;;7.20;6.85;;;;;;;26.20;44.09;93021.59;5050322;28;20233;-72
2022/08/03 09:21:20;;;;;;;7.78;7.38;;;;;;;26.49;43.94;93031.47;5051168;28;20197;-74
2022/08/03 09:23:52;;;;;;;8.75;7.75;;;;;;;26.63;43.70;93026.31;5049563;28;20221;-73
2022/08/03 09:26:25;;;;;;;8.40;7.80;;;;;;;26.88;42.71;93013.13;5050529;28;20186;-73
2022/08/03 09:28:57;;;;;;;7.47;7.00;;;;;;;26.94;39.30;93025.09;5049232;28;20233;-72
2022/08/03 09:31:58;;;;;;;7.97;7.45;;;;;;;26.19;41.18;93009.38;5050892;28;20200;-72
2022/08/03 09:34:27;;;;;;;7.82;7.32;;;;;;;26.63;40.56;93006.78;5049358;28;20220;-74
2022/08/03 09:36:53;;;;;;;7.63;7.22;;;;;;;26.51;41.19;93023.84;5049845;28;20228;-74
2022/08/03 09:39:20;;;;;;;7.65;7.05;;;;;;;26.75;40.75;93022.59;5048003;28;20190;-73
2022/08/03 09:42:02;;;;;;;8.02;7.53;;;;;;;26.59;40.02;93025.47;5050754;28;20202;-74
2022/08/03 09:44:42;;;;;;;7.82;7.35;;;;;;;26.81;39.66;93031.84;5050667;28;20222;-73
2022/08/03 09:47:09;;;;;;;8.05;7.65;;;;;;;27.45;37.07;93022.44;5050081;28;20867;-74
2022/08/03 09:49:40;;;;;;;7.43;7.07;;;;;;;27.39;38.05;93018.56;5049646;28;20190;-74
2022/08/03 09:52:18;;;;;;;7.45;7.05;;;;;;;27.63;37.47;93024.09;5050282;28;20178;-74
2022/08/03 09:54:49;;;;;;;7.80;6.35;;;;;;;27.00;38.38;93017.47;5051038;28;20186;-73
2022/08/03 09:57:26;;;;;;;7.45;7.05;;;;;;;27.54;38.77;93023.66;5046733;28;20222;-74
2022/08/03 09:59:55;;;;;;;7.95;7.45;;;;;;;27.72;38.00;93024.53;5050316;28;20202;-74
2022/08/03 10:02:23;;;;;;;7.97;7.47;;;;;;;27.32;37.39;92997.06;5045836;28;20237;-73
2022/08/03 10:04:51;;;;;;;8.00;7.50;;;;;;;27.12;38.83;93012.59;5047611;28;20200;-73
2022/08/03 10:07:18;;;;;;;7.72;7.28;;;;;;;27.74;38.02;93008.06;5047555;28;20246;-73
2022/08/03 10:10:10;;;;;;;8.45;7.85;;;;;;;27.42;38.05;93009.78;5049909;28;20220;-73
2022/08/03 10:12:37;;;;;;;7.82;7.32;;;;;;;28.21;37.91;93005.25;5047174;28;20305;-71
2022/08/03 10:15:03;;;;;;;7.00;6.70;;;;;;;28.18;36.99;93006.78;5050296;28;20182;-72
2022/08/03 10:17:28;;;;;;;6.95;6.63;;;;;;;28.47;36.17;93010.34;5048085;28;20232;-72
2022/08/03 10:19:53;;;;;;;7.30;6.90;;;;;;;27.79;35.88;92978.19;5049504;28;20196;-73
2022/08/03 10:22:21;;;;;;;8.27;7.78;;;;;;;27.62;37.35;92992.28;5048126;28;20291;-73
2022/08/03 10:25:08;;;;;;;8.40;7.90;;;;;;;27.52;36.48;92958.13;5049431;28;20190;-71
2022/08/03 10:27:39;;;;;;;8.52;8.02;;;;;;;27.40;36.72;92993.28;5048556;28;20281;-72
2022/08/03 10:30:07;;;;;;;9.05;8.45;;;;;;;26.58;38.35;92991.03;5049134;28;20198;-72
2022/08/03 10:32:39;;;;;;;7.57;7.00;;;;;;;26.98;39.78;92992.94;5047119;28;20920;-72
2022/08/03 10:35:11;;;;;;;7.43;7.03;;;;;;;26.97;39.71;92992.19;5048634;28;20166;-74
2022/08/03 10:37:42;;;;;;;7.18;6.78;;;;;;;26.89;38.86;92993.25;5049045;28;20320;-72
2022/08/03 10:40:11;;;;;;;7.72;7.32;;;;;;;26.90;38.88;92992.09;5048860;28;20211;-71
2022/08/03 10:42:37;;;;;;;7.93;7.07;;;;;;;26.97;38.80;92996.75;5049316;28;20256;-73
2022/08/03 10:45:05;;;;;;;7.72;7.13;;;;;;;26.77;38.61;92983.56;5049487;28;20189;-76
2022/08/03 10:47:32;;;;;;;9.15;8.55;;;;;;;26.68;38.14;92988.47;5048278;28;20225;-72
2022/08/03 10:49:58;;;;;;;8.25;7.72;;;;;;;26.68;38.40;92968.94;5047952;28;20227;-72
2022/08/03 10:52:24;;;;;;;8.63;8.07;;;;;;;26.60;39.18;92973.44;5047776;28;20238;-72
2022/08/03 10:57:53;;;;;;;8.48;8.00;;;;;;;27.54;37.48;92988.00;5049071;28;20252;-72
2022/08/03 11:00:21;;;;;;;8.32;7.63;;;;;;;27.34;38.92;92979.47;5050068;28;20249;-74
2022/08/03 11:03:10;;;;;;;7.88;7.38;;;;;;;27.19;37.71;92958.25;5047489;28;20241;-74
2022/08/03 11:05:40;;;;;;;8.30;7.55;;;;;;;27.59;37.80;92985.75;5049221;28;20245;-73
2022/08/03 11:08:26;;;;;;;8.77;8.27;;;;;;;26.92;38.14;92981.00;5048647;28;20230;-74
2022/08/03 11:11:22;;;;;;;8.20;7.55;;;;;;;26.56;38.87;92983.34;5049431;28;20250;-73
2022/08/03 11:14:02;;;;;;;8.02;7.53;;;;;;;26.60;39.27;92970.75;5055405;28;20294;-72
2022/08/03 11:16:28;;;;;;;7.95;7.25;;;;;;;26.89;38.99;92971.81;5049451;28;20273;-72
2022/08/03 11:19:03;;;;;;;9.05;8.45;;;;;;;26.75;38.41;92974.38;5047171;28;20356;-71
2022/08/03 11:21:47;;;;;;;8.80;8.30;;;;;;;26.66;40.10;92973.91;5048187;28;20791;-71
2022/08/03 11:24:50;;;;;;;9.15;8.57;;;;;;;26.97;38.38;92964.59;5047990;28;20237;-71
2022/08/03 11:27:23;;;;;;;8.48;7.97;;;;;;;27.04;36.93;92970.00;5046928;28;20230;-70
2022/08/03 11:29:58;;;;;;;10.00;9.05;;;;;;;27.02;38.02;92967.69;5047977;28;20199;-70
2022/08/03 11:35:11;;;;;;;8.77;8.27;;;;;;;27.46;37.17;92954.22;5047831;28;20232;-72
2022/08/03 11:38:04;;;;;;;8.43;7.93;;;;;;;27.75;36.08;92964.00;5047956;28;20264;-71
2022/08/03 11:40:36;;;;;;;8.13;7.53;;;;;;;27.39;35.68;92955.00;5049066;28;20196;-72
2022/08/03 11:43:03;;;;;;;8.23;7.63;;;;;;;26.96;37.39;92944.31;5046689;28;20234;-73
2022/08/03 11:45:30;;;;;;;8.00;7.50;;;;;;;27.73;37.42;92945.59;5050588;28;20196;-73
2022/08/03 11:47:57;;;;;;;7.82;7.43;;;;;;;27.96;36.08;92943.41;5050839;28;20236;-71
2022/08/03 11:50:24;;;;;;;7.65;7.15;;;;;;;28.02;36.48;92949.94;5052008;28;20189;-71
2022/08/03 11:52:50;;;;;;;7.35;6.93;;;;;;;27.84;36.28;92951.00;5052235;28;20713;-70